Time;durP1;ratioP1;P1;durP2;ratioP2;P2;SDS_P1;SDS_P2;PMS_P1;PMS_P2;Temp;Humidity;BMP_temperature;BMP_pressure;BME280_temperature;BME280_humidity;BME280_pressure;Samples;Min_cycle;Max_cycle;Signal;HPM_P1;HPM_P2
2023/01/18 00:02:21;;;;;;;5.03;3.60;;;;;;;;;;5056542;28;20044;-56
2023/01/18 00:04:47;;;;;;;4.77;3.37;;;;;;;;;;5056098;28;20033;-54
2023/01/18 00:07:13;;;;;;;5.33;4.63;;;;;;;;;;5056132;28;20104;-57
2023/01/18 00:09:39;;;;;;;6.67;4.97;;;;;;;;;;5056145;28;20025;-56
2023/01/18 00:12:05;;;;;;;7.70;3.70;;;;;;;;;;5055990;28;20037;-54
2023/01/18 00:14:31;;;;;;;3.50;3.07;;;;;;;;;;5056457;28;20391;-56
2023/01/18 00:16:57;;;;;;;4.47;4.07;;;;;;;;;;5056639;28;20033;-56
2023/01/18 00:19:23;;;;;;;4.03;3.47;;;;;;;;;;5055956;28;20029;-55
2023/01/18 00:21:53;;;;;;;5.27;4.00;;;;;;;;;;5054823;28;20025;-56
2023/01/18 00:24:22;;;;;;;4.55;4.13;;;;;;;;;;5056418;28;20087;-57
2023/01/18 00:26:48;;;;;;;5.80;4.13;;;;;;;;;;5056418;28;20021;-54
2023/01/18 00:29:15;;;;;;;4.90;4.40;;;;;;;;;;5055860;28;20459;-52
2023/01/18 00:31:41;;;;;;;4.13;3.30;;;;;;;;;;5055788;28;20055;-55
2023/01/18 00:34:06;;;;;;;4.23;3.17;;;;;;;;;;5056044;28;20025;-57
2023/01/18 00:36:33;;;;;;;5.63;4.33;;;;;;;;;;5055743;28;20375;-55
2023/01/18 00:38:59;;;;;;;6.43;4.00;;;;;;;;;;5056401;28;20029;-55
2023/01/18 00:41:25;;;;;;;3.87;3.43;;;;;;;;;;5055874;28;20027;-55
2023/01/18 00:43:52;;;;;;;4.17;3.20;;;;;;;;;;5055608;28;20108;-56
2023/01/18 00:46:19;;;;;;;6.77;4.10;;;;;;;;;;5055539;28;20033;-56
2023/01/18 00:48:45;;;;;;;7.97;4.87;;;;;;;;;;5055962;28;20033;-56
2023/01/18 00:51:12;;;;;;;5.03;3.67;;;;;;;;;;5055111;28;20078;-57
2023/01/18 00:53:39;;;;;;;6.37;5.00;;;;;;;;;;5054146;28;20162;-56
2023/01/18 00:56:05;;;;;;;6.37;4.50;;;;;;;;;;5056009;28;20061;-55
2023/01/18 00:58:32;;;;;;;4.73;4.23;;;;;;;;;;5055326;28;20025;-57
2023/01/18 01:00:58;;;;;;;6.77;5.60;;;;;;;;;;5055803;28;20025;-56
2023/01/18 01:03:24;;;;;;;7.20;3.53;;;;;;;;;;5055084;28;20049;-55
2023/01/18 01:08:34;;;;;;;4.87;3.80;;;;;;;;;;5055376;28;20031;-55
2023/01/18 01:11:05;;;;;;;5.30;3.60;;;;;;;;;;5055544;28;20025;-56
2023/01/18 01:27:14;;;;;;;5.20;4.70;;;;;;;;;;5054811;28;20094;-57
2023/01/18 01:29:40;;;;;;;7.87;4.97;;;;;;;;;;5055232;28;20025;-56
2023/01/18 01:32:06;;;;;;;6.63;4.50;;;;;;;;;;5054440;28;20029;-57
2023/01/18 01:34:32;;;;;;;6.40;5.67;;;;;;;;;;5055167;28;20052;-57
2023/01/18 01:36:58;;;;;;;5.37;4.53;;;;;;;;;;5055039;28;20029;-57
2023/01/18 01:39:24;;;;;;;8.13;5.83;;;;;;;;;;5054533;28;20032;-56
2023/01/18 01:41:50;;;;;;;6.70;4.50;;;;;;;;;;5054999;28;20439;-53
2023/01/18 01:44:19;;;;;;;8.57;5.37;;;;;;;;;;5055216;28;20029;-51
2023/01/18 01:47:04;;;;;;;7.07;6.33;;;;;;;;;;5054374;28;20501;-55
2023/01/18 01:49:41;;;;;;;5.87;5.30;;;;;;;;;;5054308;28;20021;-52
2023/01/18 01:52:14;;;;;;;7.47;6.03;;;;;;;;;;5054337;28;20024;-51
2023/01/18 01:54:46;;;;;;;7.50;5.33;;;;;;;;;;5054494;28;20059;-54
2023/01/18 01:57:15;;;;;;;6.37;5.53;;;;;;;;;;5054454;28;20033;-53
2023/01/18 02:00:07;;;;;;;8.50;5.83;;;;;;;;;;5054102;28;20017;-51
2023/01/18 02:02:34;;;;;;;7.00;6.20;;;;;;;;;;5053159;28;20044;-53
2023/01/18 02:05:02;;;;;;;6.10;5.27;;;;;;;;;;5053623;28;20063;-53
2023/01/18 02:07:28;;;;;;;7.17;5.93;;;;;;;;;;5054337;28;20052;-59
2023/01/18 02:09:55;;;;;;;9.00;6.43;;;;;;;;;;5054283;28;20032;-54
2023/01/18 02:12:21;;;;;;;7.37;6.13;;;;;;;;;;5053975;28;20021;-54
2023/01/18 02:14:47;;;;;;;7.23;6.43;;;;;;;;;;5054170;28;20036;-53
2023/01/18 02:17:21;;;;;;;5.70;5.00;;;;;;;;;;5054687;28;20021;-54
2023/01/18 02:19:58;;;;;;;6.90;5.00;;;;;;;;;;5054144;28;20036;-56
2023/01/18 02:22:24;;;;;;;7.93;6.20;;;;;;;;;;5054160;28;20044;-53
2023/01/18 02:25:29;;;;;;;9.17;6.53;;;;;;;;;;5053703;28;20122;-57
2023/01/18 02:28:14;;;;;;;7.93;5.97;;;;;;;;;;5031611;28;20383;-55
2023/01/18 02:30:48;;;;;;;6.20;4.73;;;;;;;;;;5032060;28;20048;-56
2023/01/18 02:33:17;;;;;;;5.23;4.57;;;;;;;;;;5046625;28;20048;-53
2023/01/18 02:35:49;;;;;;;10.20;6.27;;;;;;;;;;5053613;28;20036;-52
2023/01/18 02:38:30;;;;;;;9.60;6.70;;;;;;;;;;5053316;28;20475;-50
2023/01/18 02:40:56;;;;;;;7.73;6.63;;;;;;;;;;5054177;28;20029;-53
2023/01/18 02:48:57;;;;;;;7.40;5.37;;;;;;;;;;5057499;28;20028;-52
2023/01/18 02:51:23;;;;;;;6.70;6.07;;;;;;;;;;5057412;28;20025;-54
2023/01/18 02:53:49;;;;;;;6.97;5.97;;;;;;;;;;5057526;28;20059;-55
2023/01/18 02:56:15;;;;;;;9.87;6.87;;;;;;;;;;5057957;28;20033;-53
2023/01/18 02:58:48;;;;;;;6.77;4.97;;;;;;;;;;5057970;28;20362;-55
2023/01/18 03:01:17;;;;;;;6.00;5.37;;;;;;;;;;5057615;28;20048;-55
2023/01/18 03:03:45;;;;;;;7.83;6.53;;;;;;;;;;5058076;28;20051;-51
2023/01/18 03:06:11;;;;;;;6.33;5.67;;;;;;;;;;5057412;28;20029;-55
2023/01/18 03:08:46;;;;;;;10.00;6.17;;;;;;;;;;5057624;28;20352;-51
2023/01/18 03:11:16;;;;;;;7.93;7.13;;;;;;;;;;5057600;28;20029;-56
2023/01/18 03:13:53;;;;;;;7.00;5.05;;;;;;;;;;5057630;28;20032;-56
2023/01/18 03:16:24;;;;;;;7.33;5.83;;;;;;;;;;5057592;28;20029;-54
2023/01/18 03:19:01;;;;;;;8.10;7.30;;;;;;;;;;5057265;28;20335;-53
2023/01/18 03:21:34;;;;;;;7.87;7.07;;;;;;;;;;5057482;28;20021;-50
2023/01/18 03:24:02;;;;;;;8.17;7.40;;;;;;;;;;5057067;28;20017;-50
2023/01/18 03:26:29;;;;;;;7.90;6.10;;;;;;;;;;5057016;28;20060;-53
2023/01/18 03:34:32;;;;;;;8.30;7.50;;;;;;;;;;5056662;28;20036;-53
2023/01/18 03:36:59;;;;;;;6.07;5.47;;;;;;;;;;5056820;28;20021;-52
2023/01/18 03:39:30;;;;;;;5.03;4.27;;;;;;;;;;5056839;28;20025;-55
2023/01/18 03:41:59;;;;;;;6.65;6.05;;;;;;;;;;5057049;28;20467;-52
2023/01/18 03:44:28;;;;;;;8.23;5.80;;;;;;;;;;5057267;28;20447;-55
2023/01/18 03:46:55;;;;;;;8.23;5.30;;;;;;;;;;5056622;28;20032;-55
2023/01/18 03:49:21;;;;;;;6.87;4.63;;;;;;;;;;5056567;28;20021;-52
2023/01/18 03:52:01;;;;;;;5.27;4.67;;;;;;;;;;5056852;28;20033;-53
2023/01/18 03:54:30;;;;;;;4.23;3.63;;;;;;;;;;5056579;28;20352;-51
2023/01/18 03:57:01;;;;;;;5.00;3.73;;;;;;;;;;5056363;28;20025;-53
2023/01/18 03:59:29;;;;;;;6.13;5.33;;;;;;;;;;5056327;28;20033;-55
2023/01/18 04:01:55;;;;;;;6.87;5.77;;;;;;;;;;5056603;28;20147;-52
2023/01/18 04:04:21;;;;;;;7.33;3.80;;;;;;;;;;5056527;28;20025;-56
2023/01/18 04:06:47;;;;;;;6.67;5.53;;;;;;;;;;5056254;28;20033;-57
2023/01/18 04:09:13;;;;;;;5.50;4.67;;;;;;;;;;5056176;28;20029;-55
2023/01/18 04:11:39;;;;;;;6.23;5.60;;;;;;;;;;5056200;28;20021;-56
2023/01/18 04:14:05;;;;;;;3.97;3.40;;;;;;;;;;5056430;28;20155;-55
2023/01/18 04:16:32;;;;;;;7.20;5.33;;;;;;;;;;5056022;28;20032;-55
2023/01/18 04:18:57;;;;;;;7.27;4.47;;;;;;;;;;5055985;28;20447;-53
2023/01/18 04:21:23;;;;;;;4.97;4.47;;;;;;;;;;5055745;28;20078;-53
2023/01/18 04:23:49;;;;;;;7.23;6.53;;;;;;;;;;5056450;28;20021;-54
2023/01/18 04:26:15;;;;;;;6.80;5.57;;;;;;;;;;5056089;28;20063;-55
2023/01/18 04:28:42;;;;;;;5.53;5.03;;;;;;;;;;5056419;28;20026;-56
2023/01/18 04:31:08;;;;;;;6.77;5.43;;;;;;;;;;5055833;28;20032;-56
2023/01/18 04:33:34;;;;;;;5.00;4.50;;;;;;;;;;5055698;28;20051;-54
2023/01/18 04:36:00;;;;;;;8.03;5.83;;;;;;;;;;5055819;28;20037;-53
2023/01/18 04:38:27;;;;;;;6.60;4.97;;;;;;;;;;5055811;28;20061;-57
2023/01/18 04:40:53;;;;;;;4.60;3.60;;;;;;;;;;5055658;28;20025;-53
2023/01/18 04:43:19;;;;;;;5.20;4.43;;;;;;;;;;5055890;28;20028;-52
2023/01/18 04:45:52;;;;;;;6.83;5.03;;;;;;;;;;5055868;28;20383;-54
2023/01/18 04:48:18;;;;;;;7.07;5.33;;;;;;;;;;5055922;28;20021;-54
2023/01/18 04:50:45;;;;;;;10.57;4.40;;;;;;;;;;5055496;28;20036;-52
2023/01/18 04:53:11;;;;;;;6.07;5.37;;;;;;;;;;5055975;28;20025;-56
2023/01/18 04:55:37;;;;;;;5.80;4.63;;;;;;;;;;5056264;28;20068;-56
2023/01/18 04:58:03;;;;;;;7.83;4.50;;;;;;;;;;5055325;28;20460;-54
2023/01/18 05:00:29;;;;;;;8.03;4.87;;;;;;;;;;5055353;28;20054;-54
2023/01/18 05:02:55;;;;;;;5.53;4.47;;;;;;;;;;5055418;28;20041;-56
2023/01/18 05:05:21;;;;;;;6.80;4.10;;;;;;;;;;5055230;28;20534;-56
2023/01/18 05:07:47;;;;;;;8.37;6.43;;;;;;;;;;5054707;28;20029;-56
2023/01/18 05:10:13;;;;;;;5.23;3.90;;;;;;;;;;5055177;28;20025;-56
2023/01/18 05:12:39;;;;;;;4.00;3.43;;;;;;;;;;5055314;28;20029;-54
2023/01/18 05:15:06;;;;;;;5.43;4.90;;;;;;;;;;5055415;28;20101;-55
2023/01/18 05:17:33;;;;;;;8.27;5.13;;;;;;;;;;5054947;28;20029;-52
2023/01/18 05:19:59;;;;;;;6.93;5.33;;;;;;;;;;5054597;28;20478;-55
2023/01/18 05:22:26;;;;;;;6.70;4.10;;;;;;;;;;5055369;28;20029;-56
2023/01/18 05:24:53;;;;;;;6.67;4.53;;;;;;;;;;5055059;28;20110;-56
2023/01/18 05:27:19;;;;;;;3.93;3.30;;;;;;;;;;5054096;28;20037;-53
2023/01/18 05:29:47;;;;;;;4.70;3.90;;;;;;;;;;5054716;28;20021;-56
2023/01/18 05:32:13;;;;;;;4.93;4.43;;;;;;;;;;5055256;28;20025;-55
2023/01/18 05:34:39;;;;;;;4.37;3.97;;;;;;;;;;5055233;28;20049;-56
2023/01/18 05:37:05;;;;;;;4.40;3.47;;;;;;;;;;5054495;28;20090;-56
2023/01/18 05:39:31;;;;;;;9.27;4.57;;;;;;;;;;5054395;28;20108;-54
2023/01/18 05:41:57;;;;;;;9.23;6.00;;;;;;;;;;5054203;28;20451;-56
2023/01/18 05:44:23;;;;;;;4.93;3.80;;;;;;;;;;5054734;28;20027;-55
2023/01/18 05:46:49;;;;;;;2.73;2.20;;;;;;;;;;5054216;28;20417;-55
2023/01/18 05:49:15;;;;;;;4.93;3.30;;;;;;;;;;5054269;28;20059;-56
2023/01/18 05:51:41;;;;;;;4.03;2.77;;;;;;;;;;5054279;28;20029;-54
2023/01/18 05:54:07;;;;;;;3.70;3.17;;;;;;;;;;5053899;28;20486;-56
2023/01/18 05:56:33;;;;;;;4.67;3.87;;;;;;;;;;5054036;28;20115;-54
2023/01/18 05:58:59;;;;;;;4.67;4.17;;;;;;;;;;5054157;28;20033;-56
2023/01/18 06:01:25;;;;;;;2.73;2.23;;;;;;;;;;5053931;28;20116;-55
2023/01/18 06:03:51;;;;;;;2.47;1.70;;;;;;;;;;5054213;28;20029;-56
2023/01/18 06:06:17;;;;;;;2.70;2.07;;;;;;;;;;5054071;28;20143;-55
2023/01/18 06:08:43;;;;;;;7.30;2.43;;;;;;;;;;5053983;28;20107;-52
2023/01/18 06:11:09;;;;;;;5.10;3.20;;;;;;;;;;5053724;28;20106;-55
2023/01/18 06:13:35;;;;;;;2.80;2.37;;;;;;;;;;5054035;28;20031;-55
2023/01/18 06:16:01;;;;;;;3.57;2.27;;;;;;;;;;5053887;28;20040;-56
2023/01/18 06:18:28;;;;;;;3.57;2.70;;;;;;;;;;5053816;28;20025;-55
2023/01/18 06:20:58;;;;;;;4.90;3.60;;;;;;;;;;5053412;28;20036;-56
2023/01/18 06:23:24;;;;;;;4.30;3.15;;;;;;;;;;5054587;28;20355;-57
2023/01/18 06:25:50;;;;;;;2.10;1.90;;;;;;;;;;5054136;28;20029;-56
2023/01/18 06:28:18;;;;;;;6.97;3.07;;;;;;;;;;5053843;28;20482;-56
2023/01/18 06:30:46;;;;;;;4.10;2.90;;;;;;;;;;5053733;28;20127;-56
2023/01/18 06:33:12;;;;;;;6.80;2.77;;;;;;;;;;5054193;28;20091;-55
2023/01/18 06:35:38;;;;;;;2.33;2.03;;;;;;;;;;5053904;28;20041;-53
2023/01/18 06:38:04;;;;;;;3.63;2.67;;;;;;;;;;5053653;28;20029;-56
2023/01/18 06:40:31;;;;;;;3.50;3.00;;;;;;;;;;5053607;28;20025;-56
2023/01/18 06:42:57;;;;;;;2.47;2.17;;;;;;;;;;5053822;28;20059;-56
2023/01/18 06:45:24;;;;;;;2.83;2.00;;;;;;;;;;5054309;28;20040;-53
2023/01/18 06:47:50;;;;;;;4.03;2.70;;;;;;;;;;5053452;28;20065;-53
2023/01/18 06:50:17;;;;;;;7.13;2.97;;;;;;;;;;5053581;28;20063;-54
2023/01/18 06:52:43;;;;;;;3.43;2.20;;;;;;;;;;5054064;28;20029;-54
2023/01/18 06:55:10;;;;;;;3.33;2.67;;;;;;;;;;5053910;28;20049;-55
2023/01/18 06:57:36;;;;;;;2.87;2.17;;;;;;;;;;5053478;28;20025;-56
2023/01/18 07:00:04;;;;;;;3.97;2.77;;;;;;;;;;5053402;28;20090;-56
2023/01/18 07:02:31;;;;;;;3.87;3.43;;;;;;;;;;5053450;28;20041;-52
2023/01/18 07:04:57;;;;;;;5.50;3.27;;;;;;;;;;5052134;28;20084;-53
2023/01/18 07:07:22;;;;;;;4.27;3.70;;;;;;;;;;5053521;28;20031;-55
2023/01/18 07:09:48;;;;;;;4.17;2.73;;;;;;;;;;5053884;28;20020;-57
2023/01/18 07:12:14;;;;;;;3.90;3.17;;;;;;;;;;5053052;28;20415;-57
2023/01/18 07:14:40;;;;;;;4.33;3.70;;;;;;;;;;5053642;28;20029;-54
2023/01/18 07:17:07;;;;;;;5.20;3.40;;;;;;;;;;5053311;28;20090;-55
2023/01/18 07:19:33;;;;;;;13.30;6.40;;;;;;;;;;5054059;28;20325;-55
2023/01/18 07:22:00;;;;;;;7.63;5.13;;;;;;;;;;5053137;28;20072;-55
2023/01/18 07:24:26;;;;;;;7.10;3.77;;;;;;;;;;5054003;28;20029;-53
2023/01/18 07:26:52;;;;;;;10.80;4.67;;;;;;;;;;5051541;28;20094;-54
2023/01/18 07:29:18;;;;;;;4.37;3.97;;;;;;;;;;5053259;28;20029;-55
2023/01/18 07:31:44;;;;;;;6.63;4.43;;;;;;;;;;5055831;28;20029;-54
2023/01/18 07:34:10;;;;;;;3.60;2.70;;;;;;;;;;5056433;28;20063;-56
2023/01/18 07:36:40;;;;;;;6.80;4.97;;;;;;;;;;5057223;28;20067;-56
2023/01/18 07:39:07;;;;;;;5.00;4.13;;;;;;;;;;5056591;28;20033;-55
2023/01/18 07:41:33;;;;;;;3.87;3.27;;;;;;;;;;5056669;28;20021;-55
2023/01/18 07:43:59;;;;;;;5.30;3.60;;;;;;;;;;5056564;28;20486;-53
2023/01/18 07:46:25;;;;;;;6.03;5.10;;;;;;;;;;5056685;28;20033;-54
2023/01/18 07:48:52;;;;;;;4.63;3.23;;;;;;;;;;5056859;28;20090;-55
2023/01/18 07:51:18;;;;;;;3.43;3.00;;;;;;;;;;5056326;28;20056;-57
2023/01/18 07:53:44;;;;;;;4.67;3.97;;;;;;;;;;5056456;28;20406;-54
2023/01/18 07:56:12;;;;;;;7.60;4.40;;;;;;;;;;5057275;28;20055;-57
2023/01/18 07:58:38;;;;;;;4.33;3.70;;;;;;;;;;5056355;28;20421;-57
2023/01/18 08:01:08;;;;;;;4.97;4.47;;;;;;;;;;5056410;28;20029;-55
2023/01/18 08:03:35;;;;;;;5.10;4.20;;;;;;;;;;5055907;28;20094;-57
2023/01/18 08:06:02;;;;;;;4.27;3.80;;;;;;;;;;5056073;28;20033;-57
2023/01/18 08:08:28;;;;;;;5.33;3.43;;;;;;;;;;5056288;28;20059;-56
2023/01/18 08:10:55;;;;;;;5.50;3.37;;;;;;;;;;5056227;28;20099;-55
2023/01/18 08:13:21;;;;;;;6.70;4.43;;;;;;;;;;5057032;28;20025;-55
2023/01/18 08:15:47;;;;;;;6.90;5.50;;;;;;;;;;5056520;28;20082;-54
2023/01/18 08:18:13;;;;;;;3.03;2.70;;;;;;;;;;5056133;28;20025;-55
2023/01/18 08:20:42;;;;;;;6.90;3.57;;;;;;;;;;5056421;28;20025;-55
2023/01/18 08:23:08;;;;;;;6.97;4.17;;;;;;;;;;5056005;28;20029;-53
2023/01/18 08:25:34;;;;;;;3.60;3.23;;;;;;;;;;5055859;28;20033;-53
2023/01/18 08:28:01;;;;;;;7.63;4.70;;;;;;;;;;5056457;28;20104;-56
2023/01/18 08:30:29;;;;;;;4.53;3.40;;;;;;;;;;5056321;28;20035;-55
2023/01/18 08:32:56;;;;;;;8.20;3.70;;;;;;;;;;5055733;28;20021;-53
2023/01/18 08:35:22;;;;;;;4.87;3.90;;;;;;;;;;5056172;28;20025;-56
2023/01/18 08:37:48;;;;;;;3.37;3.07;;;;;;;;;;5055653;28;20063;-53
2023/01/18 08:40:14;;;;;;;5.83;4.07;;;;;;;;;;5056331;28;20451;-57
2023/01/18 08:42:40;;;;;;;14.80;3.90;;;;;;;;;;5054716;28;20041;-54
2023/01/18 08:45:06;;;;;;;7.03;3.73;;;;;;;;;;5055889;28;20029;-56
2023/01/18 08:47:32;;;;;;;7.50;3.87;;;;;;;;;;5055914;28;20033;-56
2023/01/18 08:49:58;;;;;;;5.53;4.17;;;;;;;;;;5055498;28;20363;-55
2023/01/18 08:52:24;;;;;;;4.20;3.63;;;;;;;;;;5055806;28;20029;-54
2023/01/18 08:54:51;;;;;;;4.67;4.27;;;;;;;;;;5055648;28;20460;-57
2023/01/18 08:57:17;;;;;;;5.63;4.37;;;;;;;;;;5055315;28;20029;-55
2023/01/18 08:59:43;;;;;;;5.30;2.80;;;;;;;;;;5055329;28;20360;-55
2023/01/18 09:02:10;;;;;;;5.77;4.97;;;;;;;;;;5055109;28;20486;-56
2023/01/18 09:04:36;;;;;;;7.03;3.23;;;;;;;;;;5055092;28;20056;-55
2023/01/18 09:07:02;;;;;;;4.80;3.93;;;;;;;;;;5055243;28;20106;-55
2023/01/18 09:09:28;;;;;;;3.70;3.40;;;;;;;;;;5055365;28;20466;-56
2023/01/18 09:11:55;;;;;;;4.27;3.50;;;;;;;;;;5055085;28;20375;-55
2023/01/18 09:14:21;;;;;;;5.13;4.17;;;;;;;;;;5055005;28;20032;-56
2023/01/18 09:16:48;;;;;;;5.20;4.17;;;;;;;;;;5055300;28;20033;-56
2023/01/18 09:19:14;;;;;;;6.00;3.97;;;;;;;;;;5054918;28;20128;-58
2023/01/18 09:21:40;;;;;;;4.83;3.60;;;;;;;;;;5054859;28;20032;-56
2023/01/18 09:24:08;;;;;;;3.10;2.47;;;;;;;;;;5055365;28;20455;-56
2023/01/18 09:26:34;;;;;;;4.33;2.77;;;;;;;;;;5054719;28;20079;-56
2023/01/18 09:29:00;;;;;;;3.20;2.73;;;;;;;;;;5054787;28;20021;-57
2023/01/18 09:31:27;;;;;;;3.30;2.37;;;;;;;;;;5055628;28;20226;-55
2023/01/18 09:33:54;;;;;;;3.00;2.70;;;;;;;;;;5054708;28;20524;-57
2023/01/18 09:36:25;;;;;;;8.30;5.50;;;;;;;;;;5054700;28;20033;-55
2023/01/18 09:38:51;;;;;;;5.13;4.25;;;;;;;;;;5055155;28;20024;-57
2023/01/18 09:41:32;;;;;;;7.13;4.60;;;;;;;;;;5054891;28;20040;-56
2023/01/18 09:44:00;;;;;;;5.10;3.37;;;;;;;;;;5054482;28;20036;-55
2023/01/18 09:46:27;;;;;;;4.37;3.43;;;;;;;;;;5054769;28;20131;-56
2023/01/18 09:48:57;;;;;;;2.83;2.17;;;;;;;;;;5054349;28;20055;-55
2023/01/18 09:51:31;;;;;;;5.40;2.75;;;;;;;;;;5054859;28;20078;-56
2023/01/18 09:54:03;;;;;;;3.90;3.27;;;;;;;;;;5054438;28;20024;-56
2023/01/18 09:56:36;;;;;;;7.67;4.57;;;;;;;;;;5055085;28;20029;-53
2023/01/18 09:59:20;;;;;;;5.53;4.60;;;;;;;;;;5054219;28;20028;-53
2023/01/18 10:01:47;;;;;;;5.43;3.63;;;;;;;;;;5053941;28;20053;-55
2023/01/18 10:04:31;;;;;;;3.63;2.80;;;;;;;;;;5054269;28;20032;-55
2023/01/18 10:07:01;;;;;;;4.27;3.00;;;;;;;;;;5054134;28;20040;-56
2023/01/18 10:09:29;;;;;;;9.57;4.83;;;;;;;;;;5054680;28;20035;-55
2023/01/18 10:11:58;;;;;;;3.67;3.00;;;;;;;;;;5054145;28;20067;-56
2023/01/18 10:14:44;;;;;;;5.00;3.07;;;;;;;;;;5054927;28;20025;-53
2023/01/18 10:17:20;;;;;;;3.47;2.97;;;;;;;;;;5053656;28;20459;-56
2023/01/18 10:19:46;;;;;;;4.00;3.17;;;;;;;;;;5052661;28;20116;-57
2023/01/18 10:22:18;;;;;;;4.80;3.37;;;;;;;;;;5054451;28;20025;-53
2023/01/18 10:25:00;;;;;;;5.13;3.63;;;;;;;;;;5054254;28;20029;-56
2023/01/18 10:27:46;;;;;;;7.03;5.43;;;;;;;;;;5054131;28;20466;-56
2023/01/18 10:30:15;;;;;;;4.07;3.53;;;;;;;;;;5054138;28;20379;-58
2023/01/18 10:32:47;;;;;;;5.67;3.37;;;;;;;;;;5053806;28;20025;-54
2023/01/18 10:35:18;;;;;;;3.37;2.83;;;;;;;;;;5053713;28;20033;-55
2023/01/18 10:37:45;;;;;;;4.40;3.33;;;;;;;;;;5054322;28;20033;-55
2023/01/18 10:40:13;;;;;;;4.97;3.50;;;;;;;;;;5053634;28;20119;-54
2023/01/18 10:42:44;;;;;;;5.80;3.60;;;;;;;;;;5054179;28;20025;-53
2023/01/18 10:45:20;;;;;;;5.88;4.10;;;;;;;;;;5054450;28;20064;-54
2023/01/18 10:47:50;;;;;;;3.53;3.10;;;;;;;;;;5053915;28;20549;-53
2023/01/18 10:50:32;;;;;;;2.20;1.58;;;;;;;;;;5053613;28;20055;-55
2023/01/18 10:52:58;;;;;;;5.03;2.70;;;;;;;;;;5053971;28;20064;-52
2023/01/18 10:55:24;;;;;;;4.17;3.77;;;;;;;;;;5053346;28;20029;-53
2023/01/18 10:57:52;;;;;;;5.27;3.70;;;;;;;;;;5053542;28;20059;-55
2023/01/18 11:00:34;;;;;;;7.80;4.60;;;;;;;;;;5054066;28;20088;-51
2023/01/18 11:03:01;;;;;;;6.40;2.67;;;;;;;;;;5053932;28;20075;-54
2023/01/18 11:05:31;;;;;;;3.03;2.50;;;;;;;;;;5054319;28;20032;-56
2023/01/18 11:08:32;;;;;;;5.03;3.60;;;;;;;;;;5057899;28;20024;-55
2023/01/18 11:11:00;;;;;;;5.85;4.30;;;;;;;;;;5045661;28;20506;-54
2023/01/18 11:13:34;;;;;;;4.77;3.37;;;;;;;;;;5057356;28;20036;-54
2023/01/18 11:16:13;;;;;;;5.57;5.07;;;;;;;;;;5057708;28;20024;-50
2023/01/18 11:18:54;;;;;;;5.50;3.27;;;;;;;;;;5057271;28;20021;-52
2023/01/18 11:21:20;;;;;;;3.97;3.60;;;;;;;;;;5057908;28;20112;-52
2023/01/18 11:23:48;;;;;;;5.80;4.60;;;;;;;;;;5057606;28;20029;-53
2023/01/18 11:26:18;;;;;;;6.10;4.27;;;;;;;;;;5057421;28;20116;-53
2023/01/18 11:28:53;;;;;;;12.55;3.55;;;;;;;;;;5057460;28;20021;-53
2023/01/18 11:31:20;;;;;;;6.43;4.07;;;;;;;;;;5057662;28;20115;-51
2023/01/18 11:33:57;;;;;;;6.53;3.43;;;;;;;;;;5056963;28;20029;-53
2023/01/18 11:36:35;;;;;;;7.27;3.63;;;;;;;;;;5057774;28;20351;-53
2023/01/18 11:39:36;;;;;;;7.23;4.60;;;;;;;;;;5056843;28;20104;-54
2023/01/18 11:42:21;;;;;;;4.77;3.30;;;;;;;;;;5034681;28;20021;-52
2023/01/18 11:44:56;;;;;;;5.17;3.77;;;;;;;;;;5055169;28;20037;-55
2023/01/18 11:47:27;;;;;;;4.13;3.20;;;;;;;;;;5057182;28;20104;-55
2023/01/18 11:50:04;;;;;;;6.97;3.97;;;;;;;;;;5057471;28;20036;-52
2023/01/18 11:52:36;;;;;;;5.73;4.57;;;;;;;;;;5056788;28;20108;-55
2023/01/18 11:55:06;;;;;;;5.37;3.83;;;;;;;;;;5056520;28;20029;-52
2023/01/18 11:57:32;;;;;;;6.70;4.18;;;;;;;;;;5056705;28;20032;-56
2023/01/18 11:59:58;;;;;;;3.37;2.13;;;;;;;;;;5056423;28;20099;-55
2023/01/18 12:02:44;;;;;;;4.30;2.60;;;;;;;;;;5056076;28;20088;-52
2023/01/18 12:05:24;;;;;;;2.77;2.13;;;;;;;;;;5056619;28;20029;-52
2023/01/18 12:08:04;;;;;;;4.33;2.63;;;;;;;;;;5056339;28;20029;-57
2023/01/18 12:10:39;;;;;;;2.93;2.10;;;;;;;;;;5056111;28;20079;-56
2023/01/18 12:13:24;;;;;;;7.93;3.47;;;;;;;;;;5056324;28;20140;-55
2023/01/18 12:16:00;;;;;;;3.47;2.30;;;;;;;;;;5055757;28;20028;-54
2023/01/18 12:18:45;;;;;;;5.53;2.60;;;;;;;;;;5054874;28;20471;-56
2023/01/18 12:21:12;;;;;;;3.40;2.90;;;;;;;;;;5056410;28;20021;-56
2023/01/18 12:23:44;;;;;;;5.27;3.27;;;;;;;;;;5056560;28;20024;-58
2023/01/18 12:26:16;;;;;;;3.43;2.10;;;;;;;;;;5056299;28;20059;-57
2023/01/18 12:28:51;;;;;;;4.23;3.20;;;;;;;;;;5056604;28;20033;-57
2023/01/18 12:31:20;;;;;;;2.87;2.23;;;;;;;;;;5056669;28;20087;-57
2023/01/18 12:33:56;;;;;;;3.17;2.83;;;;;;;;;;5055841;28;20029;-57
2023/01/18 12:36:22;;;;;;;3.53;2.07;;;;;;;;;;5056374;28;20048;-57
2023/01/18 12:38:51;;;;;;;3.07;2.60;;;;;;;;;;5055791;28;20025;-57
2023/01/18 12:41:26;;;;;;;3.93;2.37;;;;;;;;;;5055745;28;20351;-58
2023/01/18 12:44:12;;;;;;;4.50;2.40;;;;;;;;;;5055580;28;20047;-57
2023/01/18 12:46:42;;;;;;;4.73;3.20;;;;;;;;;;5044248;28;20414;-58
2023/01/18 12:49:16;;;;;;;3.70;3.05;;;;;;;;;;5055886;28;20484;-57
2023/01/18 12:51:42;;;;;;;3.80;3.20;;;;;;;;;;5055571;28;20486;-55
2023/01/18 12:54:28;;;;;;;4.30;2.73;;;;;;;;;;5055864;28;20100;-57
2023/01/18 12:56:56;;;;;;;4.07;2.77;;;;;;;;;;5054964;28;20103;-56
2023/01/18 12:59:42;;;;;;;4.10;2.43;;;;;;;;;;5055110;28;20417;-56
2023/01/18 13:02:20;;;;;;;11.07;3.10;;;;;;;;;;5051110;28;20071;-57
2023/01/18 13:04:51;;;;;;;2.50;1.90;;;;;;;;;;5055589;28;20025;-56
2023/01/18 13:07:26;;;;;;;3.23;2.10;;;;;;;;;;5055695;28;20139;-57
2023/01/18 13:09:53;;;;;;;2.57;2.00;;;;;;;;;;5055359;28;20021;-57
2023/01/18 13:12:19;;;;;;;2.17;1.93;;;;;;;;;;5054979;28;20075;-56
2023/01/18 13:14:52;;;;;;;3.90;2.53;;;;;;;;;;5054589;28;20517;-56
2023/01/18 13:17:34;;;;;;;2.73;1.93;;;;;;;;;;5055664;28;20037;-57
2023/01/18 13:20:13;;;;;;;10.50;3.23;;;;;;;;;;5055158;28;20471;-56
2023/01/18 13:22:44;;;;;;;6.03;2.80;;;;;;;;;;5054932;28;20075;-54
2023/01/18 13:25:13;;;;;;;3.53;2.00;;;;;;;;;;5055394;28;20033;-57
2023/01/18 13:27:55;;;;;;;3.93;2.23;;;;;;;;;;5054710;28;20021;-56
2023/01/18 13:30:21;;;;;;;3.70;2.13;;;;;;;;;;5054729;28;20510;-54
2023/01/18 13:32:48;;;;;;;1.83;1.40;;;;;;;;;;5054518;28;20047;-52
2023/01/18 13:35:19;;;;;;;3.10;2.17;;;;;;;;;;5054989;28;20029;-56
2023/01/18 13:37:49;;;;;;;3.10;1.80;;;;;;;;;;5055002;28;20029;-57
2023/01/18 13:40:24;;;;;;;3.67;2.28;;;;;;;;;;5054412;28;20032;-55
2023/01/18 13:42:50;;;;;;;3.97;3.30;;;;;;;;;;5054540;28;20021;-54
2023/01/18 13:45:18;;;;;;;4.07;1.83;;;;;;;;;;5054661;28;20110;-50
2023/01/18 13:47:49;;;;;;;4.00;2.70;;;;;;;;;;5054366;28;20028;-53
2023/01/18 13:50:30;;;;;;;3.13;2.17;;;;;;;;;;5054344;28;20061;-50
2023/01/18 13:53:14;;;;;;;4.67;2.50;;;;;;;;;;5054361;28;20087;-52
2023/01/18 13:55:41;;;;;;;2.60;2.07;;;;;;;;;;5054633;28;20036;-54
2023/01/18 13:58:26;;;;;;;2.53;1.80;;;;;;;;;;5054249;28;20020;-58
2023/01/18 14:00:53;;;;;;;3.10;2.17;;;;;;;;;;5054171;28;20073;-53
2023/01/18 14:03:40;;;;;;;2.57;2.07;;;;;;;;;;5054377;28;20052;-56
2023/01/18 14:06:10;;;;;;;2.10;1.57;;;;;;;;;;5053906;28;20033;-52
2023/01/18 14:08:37;;;;;;;;;;;;;;;;;;5054084;28;20128;-56
2023/01/18 14:11:08;;;;;;;5.17;2.97;;;;;;;;;;5054151;28;19952;-56
2023/01/18 14:13:33;;;;;;;;;;;;;;;;;;5054269;28;20443;-55
2023/01/18 14:16:00;;;;;;;2.43;1.63;;;;;;;;;;5054046;28;20003;-55
2023/01/18 14:18:30;;;;;;;4.07;2.40;;;;;;;;;;5054365;28;20024;-54
2023/01/18 14:21:21;;;;;;;3.90;2.30;;;;;;;;;;5053794;28;20029;-56
2023/01/18 14:23:56;;;;;;;3.27;2.60;;;;;;;;;;5054116;28;20028;-56
2023/01/18 14:26:24;;;;;;;2.73;1.90;;;;;;;;;;5054063;28;20025;-56
2023/01/18 14:28:56;;;;;;;4.27;2.07;;;;;;;;;;5053638;28;20417;-54
2023/01/18 14:31:26;;;;;;;2.60;1.97;;;;;;;;;;5053924;28;20432;-56
2023/01/18 14:33:52;;;;;;;6.37;2.67;;;;;;;;;;5053952;28;20025;-56
2023/01/18 14:36:26;;;;;;;4.07;2.33;;;;;;;;;;5053998;28;20115;-57
2023/01/18 14:39:16;;;;;;;2.87;2.20;;;;;;;;;;5053916;28;20029;-56
2023/01/18 14:41:43;;;;;;;5.17;2.23;;;;;;;;;;5052881;28;20021;-54
2023/01/18 14:44:14;;;;;;;9.80;1.77;;;;;;;;;;5053928;28;20017;-54
2023/01/18 14:46:41;;;;;;;3.90;2.50;;;;;;;;;;5053301;28;20057;-56
2023/01/18 14:49:13;;;;;;;3.40;2.33;;;;;;;;;;5054012;28;20037;-53
2023/01/18 14:51:45;;;;;;;2.83;1.77;;;;;;;;;;5053846;28;20025;-56
2023/01/18 14:54:12;;;;;;;4.00;2.20;;;;;;;;;;5053758;28;20029;-55
2023/01/18 14:56:40;;;;;;;3.53;2.47;;;;;;;;;;5054199;28;20098;-55
2023/01/18 14:59:18;;;;;;;2.33;2.07;;;;;;;;;;5053739;28;20025;-57
2023/01/18 15:01:51;;;;;;;2.77;2.33;;;;;;;;;;5053243;28;20053;-56
2023/01/18 15:04:19;;;;;;;6.40;1.63;;;;;;;;;;5053349;28;20044;-56
2023/01/18 15:06:57;;;;;;;3.07;2.37;;;;;;;;;;5053293;28;20033;-54
2023/01/18 15:09:24;;;;;;;2.90;1.73;;;;;;;;;;5053971;28;20082;-56
2023/01/18 15:11:51;;;;;;;3.43;2.60;;;;;;;;;;5052773;28;20470;-56
2023/01/18 15:14:19;;;;;;;4.83;2.83;;;;;;;;;;5053280;28;20553;-56
2023/01/18 15:16:48;;;;;;;2.13;1.70;;;;;;;;;;5053281;28;20037;-56
2023/01/18 15:19:17;;;;;;;3.57;2.03;;;;;;;;;;5053564;28;20161;-53
2023/01/18 15:21:44;;;;;;;3.40;2.57;;;;;;;;;;5053177;28;20051;-56
2023/01/18 15:24:14;;;;;;;2.93;2.13;;;;;;;;;;5053760;28;20029;-56
2023/01/18 15:26:40;;;;;;;2.77;1.67;;;;;;;;;;5053773;28;20033;-53